Time;durP1;ratioP1;P1;durP2;ratioP2;P2;SDS_P1;SDS_P2;PMS_P1;PMS_P2;Temp;Humidity;BMP_temperature;BMP_pressure;BME280_temperature;BME280_humidity;BME280_pressure;Samples;Min_cycle;Max_cycle;Signal;HPM_P1;HPM_P2
2023/03/25 00:02:05;;;;;;;;;;;25.10;99.90;;;;;;5098680;28;20275;-68
2023/03/25 00:04:33;;;;;;;;;;;25.20;99.90;;;;;;5100760;28;19923;-68
2023/03/25 00:07:01;;;;;;;;;;;25.10;99.70;;;;;;5098723;28;19907;-69
2023/03/25 00:09:28;;;;;;;;;;;25.10;99.90;;;;;;5101023;28;19914;-69
2023/03/25 00:11:54;;;;;;;;;;;25.00;99.20;;;;;;5100294;28;19990;-69
2023/03/25 00:14:21;;;;;;;;;;;24.90;99.60;;;;;;5099129;28;19995;-68
2023/03/25 00:16:51;;;;;;;;;;;24.90;99.70;;;;;;5099798;28;19915;-69
2023/03/25 00:19:20;;;;;;;;;;;24.90;99.70;;;;;;5098481;28;19908;-68
2023/03/25 00:21:49;;;;;;;;;;;25.00;99.90;;;;;;5099421;28;19996;-68
2023/03/25 00:24:16;;;;;;;;;;;25.10;99.90;;;;;;5098566;28;19915;-68
2023/03/25 00:26:47;;;;;;;;;;;25.30;99.90;;;;;;5100383;28;20010;-69
2023/03/25 00:29:14;;;;;;;;;;;25.50;99.70;;;;;;5098614;28;19939;-68
2023/03/25 00:31:41;;;;;;;;;;;25.60;99.00;;;;;;5100733;28;19907;-68
2023/03/25 00:34:08;;;;;;;;;;;25.70;99.00;;;;;;5098217;28;19914;-67
2023/03/25 00:36:36;;;;;;;;;;;25.70;99.30;;;;;;5100177;28;19907;-68
2023/03/25 00:39:07;;;;;;;;;;;25.90;99.20;;;;;;5098286;28;20086;-71
2023/03/25 00:41:40;;;;;;;;;;;26.00;99.10;;;;;;5099621;28;20296;-70
2023/03/25 00:44:07;;;;;;;;;;;26.00;99.00;;;;;;5098111;28;19916;-70
2023/03/25 00:46:34;;;;;;;;;;;25.90;99.20;;;;;;5101200;28;20326;-70
2023/03/25 00:49:00;;;;;;;;;;;25.90;99.20;;;;;;5099632;28;20089;-70
2023/03/25 00:51:30;;;;;;;;;;;25.90;99.30;;;;;;5099306;28;20110;-69
2023/03/25 00:54:00;;;;;;;;;;;26.00;99.20;;;;;;5099854;28;19908;-69
2023/03/25 00:56:28;;;;;;;;;;;26.00;99.10;;;;;;5080612;28;20118;-67
2023/03/25 00:58:55;;;;;;;;;;;25.90;98.80;;;;;;5099630;28;20036;-69
2023/03/25 01:01:25;;;;;;;;;;;25.90;99.20;;;;;;5098035;28;20118;-68
2023/03/25 01:04:02;;;;;;;;;;;26.10;98.80;;;;;;5099755;28;19960;-69
2023/03/25 01:06:33;;;;;;;;;;;26.10;98.90;;;;;;5098468;28;19947;-68
2023/03/25 01:09:04;;;;;;;;;;;26.30;98.70;;;;;;5099803;28;19931;-68
2023/03/25 01:11:36;;;;;;;;;;;26.50;98.50;;;;;;5099763;28;20201;-68
2023/03/25 01:14:04;;;;;;;;;;;26.40;97.90;;;;;;5099946;28;19931;-68
2023/03/25 01:16:32;;;;;;;;;;;26.30;98.20;;;;;;5098477;28;19908;-69
2023/03/25 01:18:58;;;;;;;;;;;26.30;98.10;;;;;;5099300;28;19966;-69
2023/03/25 01:21:25;;;;;;;;;;;26.30;98.50;;;;;;5098261;28;19915;-68
2023/03/25 01:23:52;;;;;;;;;;;26.20;98.00;;;;;;5099545;28;19998;-68
2023/03/25 01:26:18;;;;;;;;;;;26.10;98.50;;;;;;5098492;28;20109;-68
2023/03/25 01:28:45;;;;;;;;;;;26.20;98.50;;;;;;5098590;28;20150;-69
2023/03/25 01:31:12;;;;;;;;;;;26.20;98.20;;;;;;5099102;28;19908;-69
2023/03/25 01:33:39;;;;;;;;;;;26.40;98.50;;;;;;5102617;28;19915;-69
2023/03/25 01:36:11;;;;;;;;;;;26.50;98.00;;;;;;5103114;28;20011;-69
2023/03/25 01:38:39;;;;;;;;;;;26.60;98.00;;;;;;5103420;28;19924;-70
2023/03/25 01:41:06;;;;;;;;;;;26.60;98.20;;;;;;5102835;28;20428;-68
2023/03/25 01:43:33;;;;;;;;;;;26.80;98.20;;;;;;5102937;28;20293;-69
2023/03/25 01:46:00;;;;;;;;;;;27.00;97.70;;;;;;5102301;28;19915;-69
2023/03/25 01:48:31;;;;;;;;;;;27.00;97.40;;;;;;5103069;28;19994;-69
2023/03/25 01:51:00;;;;;;;;;;;27.10;97.20;;;;;;5102373;28;19915;-72
2023/03/25 01:53:29;;;;;;;;;;;27.00;97.10;;;;;;5102784;28;19919;-68
2023/03/25 01:55:55;;;;;;;;;;;26.90;97.00;;;;;;5102988;28;19912;-70
2023/03/25 01:58:23;;;;;;;;;;;26.90;97.10;;;;;;5104265;28;20109;-68
2023/03/25 02:00:50;;;;;;;;;;;27.00;97.20;;;;;;5103356;28;19915;-70
2023/03/25 02:03:19;;;;;;;;;;;27.10;97.60;;;;;;5102830;28;20006;-70
2023/03/25 02:05:57;;;;;;;;;;;27.20;96.90;;;;;;5103027;28;19908;-69
2023/03/25 02:08:25;;;;;;;;;;;27.00;96.90;;;;;;5102484;28;19943;-68
2023/03/25 02:10:52;;;;;;;;;;;27.10;97.10;;;;;;5101951;28;19904;-71
2023/03/25 02:13:19;;;;;;;;;;;27.00;96.60;;;;;;5102688;28;20001;-71
2023/03/25 02:16:04;;;;;;;;;;;26.90;97.10;;;;;;5103108;28;19911;-70
2023/03/25 02:18:31;;;;;;;;;;;26.80;97.00;;;;;;5102030;28;19915;-71
2023/03/25 02:21:17;;;;;;;;;;;26.70;97.00;;;;;;5101909;28;20374;-69
2023/03/25 02:23:43;;;;;;;;;;;27.00;96.60;;;;;;5103303;28;19968;-69
2023/03/25 02:26:48;;;;;;;;;;;27.40;96.80;;;;;;5101723;28;19915;-69
2023/03/25 02:29:38;;;;;;;;;;;27.70;95.50;;;;;;4999840;28;20283;-69
2023/03/25 02:32:23;;;;;;;;;;;27.90;95.70;;;;;;5070377;28;20322;-70
2023/03/25 02:34:59;;;;;;;;;;;28.40;95.50;;;;;;5103066;28;19914;-70
2023/03/25 02:37:36;;;;;;;;;;;29.00;94.20;;;;;;5100796;28;20194;-69
2023/03/25 02:40:05;;;;;;;;;;;29.40;93.70;;;;;;5101596;28;20311;-69
2023/03/25 02:42:32;;;;;;;;;;;29.10;93.40;;;;;;5101508;28;19911;-68
2023/03/25 02:45:06;;;;;;;;;;;29.00;93.20;;;;;;5100420;28;19908;-70
2023/03/25 02:47:35;;;;;;;;;;;29.40;93.10;;;;;;5101569;28;19949;-70
2023/03/25 02:50:06;;;;;;;;;;;29.70;92.50;;;;;;5101817;28;19912;-69
2023/03/25 02:52:37;;;;;;;;;;;29.70;92.10;;;;;;5101061;28;19908;-70
2023/03/25 02:55:09;;;;;;;;;;;29.80;92.00;;;;;;5101246;28;19930;-69
2023/03/25 02:57:38;;;;;;;;;;;29.50;92.30;;;;;;5101140;28;19977;-70
2023/03/25 03:00:13;;;;;;;;;;;29.20;92.40;;;;;;5101350;28;19915;-69
2023/03/25 03:02:43;;;;;;;;;;;28.80;92.60;;;;;;5101219;28;19912;-70
2023/03/25 03:05:20;;;;;;;;;;;29.20;93.40;;;;;;5101050;28;19908;-70
2023/03/25 03:07:51;;;;;;;;;;;31.10;91.50;;;;;;5101334;28;19955;-70
2023/03/25 03:10:25;;;;;;;;;;;32.20;89.40;;;;;;5101107;28;20276;-68
2023/03/25 03:13:05;;;;;;;;;;;31.80;87.80;;;;;;5102100;28;20379;-69
2023/03/25 03:15:36;;;;;;;;;;;31.20;88.90;;;;;;5100496;28;19915;-71
2023/03/25 03:18:16;;;;;;;;;;;30.70;90.10;;;;;;5100533;28;19914;-69
2023/03/25 03:21:05;;;;;;;;;;;29.70;91.10;;;;;;5100678;28;19963;-70
2023/03/25 03:23:47;;;;;;;;;;;29.30;91.70;;;;;;5084822;28;19957;-69
2023/03/25 03:26:21;;;;;;;;;;;29.10;92.30;;;;;;5100736;28;20014;-70
2023/03/25 03:28:53;;;;;;;;;;;29.10;91.80;;;;;;5100560;28;19961;-68
2023/03/25 03:31:31;;;;;;;;;;;28.80;91.50;;;;;;5099782;28;19907;-68
2023/03/25 03:34:01;;;;;;;;;;;28.20;92.30;;;;;;5101515;28;19915;-68
2023/03/25 03:36:30;;;;;;;;;;;28.00;92.70;;;;;;5100849;28;19923;-69
2023/03/25 03:39:04;;;;;;;;;;;28.10;93.10;;;;;;5100841;28;19971;-70
2023/03/25 03:41:32;;;;;;;;;;;28.40;91.90;;;;;;5082938;28;20010;-68
2023/03/25 03:44:13;;;;;;;;;;;28.10;92.60;;;;;;5101126;28;19907;-69
2023/03/25 03:46:49;;;;;;;;;;;27.90;92.60;;;;;;5099907;28;20055;-69
2023/03/25 03:49:18;;;;;;;;;;;27.80;93.40;;;;;;5100206;28;20287;-68
2023/03/25 03:51:53;;;;;;;;;;;27.60;92.90;;;;;;5100083;28;19908;-68
2023/03/25 03:54:28;;;;;;;;;;;27.30;93.10;;;;;;5100053;28;19969;-68
2023/03/25 03:57:04;;;;;;;;;;;27.10;93.20;;;;;;5099282;28;19915;-70
2023/03/25 03:59:46;;;;;;;;;;;27.10;94.40;;;;;;5100494;28;19908;-71
2023/03/25 04:02:22;;;;;;;;;;;27.00;94.00;;;;;;5082127;28;19990;-69
2023/03/25 04:04:50;;;;;;;;;;;26.90;93.70;;;;;;5099898;28;20372;-69
2023/03/25 04:07:19;;;;;;;;;;;26.60;93.90;;;;;;5099745;28;20361;-70
2023/03/25 04:10:20;;;;;;;;;;;26.60;94.10;;;;;;5099933;28;20002;-69
2023/03/25 04:12:49;;;;;;;;;;;26.50;94.20;;;;;;4997224;28;19960;-69
2023/03/25 04:15:16;;;;;;;;;;;26.20;94.20;;;;;;5080488;28;19908;-68
2023/03/25 04:17:43;;;;;;;;;;;26.20;94.40;;;;;;5099493;28;20384;-69
2023/03/25 04:20:22;;;;;;;;;;;26.10;93.90;;;;;;5099541;28;19916;-70
2023/03/25 04:22:51;;;;;;;;;;;26.00;94.70;;;;;;5099941;28;19943;-71
2023/03/25 04:25:20;;;;;;;;;;;25.90;94.80;;;;;;5099515;28;19953;-68
2023/03/25 04:27:47;;;;;;;;;;;26.00;94.70;;;;;;5099259;28;20019;-69
2023/03/25 04:30:17;;;;;;;;;;;25.90;94.70;;;;;;5099160;28;19915;-70
2023/03/25 04:32:45;;;;;;;;;;;25.80;94.70;;;;;;5099192;28;19911;-68
2023/03/25 04:35:13;;;;;;;;;;;25.60;94.80;;;;;;5100131;28;19947;-69
2023/03/25 04:37:40;;;;;;;;;;;25.50;94.80;;;;;;5100034;28;19907;-70
2023/03/25 04:40:08;;;;;;;;;;;25.50;95.70;;;;;;5100386;28;19979;-70
2023/03/25 04:42:36;;;;;;;;;;;25.60;95.80;;;;;;5099807;28;19915;-68
2023/03/25 04:45:06;;;;;;;;;;;25.70;95.40;;;;;;5099630;28;20086;-70
2023/03/25 04:47:33;;;;;;;;;;;25.70;95.20;;;;;;5099395;28;20086;-67
2023/03/25 04:50:00;;;;;;;;;;;25.60;95.70;;;;;;5080938;28;20014;-70
2023/03/25 04:52:27;;;;;;;;;;;25.60;95.90;;;;;;5099240;28;20283;-70
2023/03/25 04:54:54;;;;;;;;;;;25.70;95.70;;;;;;5099083;28;19908;-68
2023/03/25 04:57:21;;;;;;;;;;;25.50;95.80;;;;;;5099139;28;19912;-68
2023/03/25 04:59:47;;;;;;;;;;;25.60;96.00;;;;;;5099165;28;19912;-70
2023/03/25 05:02:17;;;;;;;;;;;25.50;95.80;;;;;;5100100;28;20067;-69
2023/03/25 05:04:46;;;;;;;;;;;25.60;96.40;;;;;;5099850;28;20288;-69
2023/03/25 05:07:12;;;;;;;;;;;25.60;96.20;;;;;;5100098;28;20268;-69
2023/03/25 05:09:39;;;;;;;;;;;25.40;96.10;;;;;;5104191;28;19911;-69
2023/03/25 05:12:10;;;;;;;;;;;25.30;96.70;;;;;;5103181;28;19915;-69
2023/03/25 05:14:36;;;;;;;;;;;25.10;96.90;;;;;;5103009;28;20254;-69
2023/03/25 05:17:03;;;;;;;;;;;24.90;97.60;;;;;;5084486;28;20397;-70
2023/03/25 05:19:33;;;;;;;;;;;24.80;98.00;;;;;;5103253;28;20272;-69
2023/03/25 05:22:01;;;;;;;;;;;24.60;98.50;;;;;;5103196;28;20356;-69
2023/03/25 05:24:28;;;;;;;;;;;24.50;98.90;;;;;;5103300;28;19912;-70
2023/03/25 05:26:55;;;;;;;;;;;24.50;99.30;;;;;;5102689;28;19907;-69
2023/03/25 05:29:21;;;;;;;;;;;24.40;99.90;;;;;;5103088;28;20253;-70
2023/03/25 05:31:48;;;;;;;;;;;24.40;99.90;;;;;;5103925;28;19907;-70
2023/03/25 05:34:15;;;;;;;;;;;24.30;99.90;;;;;;5103980;28;19914;-70
2023/03/25 05:36:42;;;;;;;;;;;24.30;99.90;;;;;;5103525;28;19992;-70
2023/03/25 05:39:09;;;;;;;;;;;23.90;99.90;;;;;;5102453;28;20067;-69
2023/03/25 05:41:39;;;;;;;;;;;23.80;99.90;;;;;;5103116;28;20235;-69
2023/03/25 05:44:06;;;;;;;;;;;23.60;99.90;;;;;;5102804;28;20352;-72
2023/03/25 05:46:33;;;;;;;;;;;23.30;99.90;;;;;;5102720;28;19915;-70
2023/03/25 05:49:00;;;;;;;;;;;23.00;99.90;;;;;;5102490;28;19915;-72
2023/03/25 05:51:28;;;;;;;;;;;22.90;99.90;;;;;;5102548;28;19908;-69
2023/03/25 05:53:54;;;;;;;;;;;22.70;99.90;;;;;;5102397;28;20372;-70
2023/03/25 05:56:23;;;;;;;;;;;22.60;99.90;;;;;;5103847;28;19908;-70
2023/03/25 05:58:50;;;;;;;;;;;22.50;99.90;;;;;;5103012;28;19908;-70
2023/03/25 06:01:17;;;;;;;;;;;22.40;99.90;;;;;;5103429;28;20101;-68
2023/03/25 06:03:44;;;;;;;;;;;22.20;99.90;;;;;;5102153;28;20091;-69
2023/03/25 06:06:17;;;;;;;;;;;22.10;99.90;;;;;;5102379;28;19955;-73
2023/03/25 06:08:51;;;;;;;;;;;22.10;99.90;;;;;;5101806;28;19908;-72
2023/03/25 06:11:18;;;;;;;;;;;22.00;99.90;;;;;;5102254;28;19919;-71
2023/03/25 06:13:51;;;;;;;;;;;21.90;99.90;;;;;;5101904;28;20368;-70
2023/03/25 06:16:26;;;;;;;;;;;21.80;99.90;;;;;;5102415;28;19908;-71
2023/03/25 06:18:58;;;;;;;;;;;21.90;99.90;;;;;;5102422;28;19969;-71
2023/03/25 06:21:25;;;;;;;;;;;21.90;99.90;;;;;;5102963;28;19916;-69
2023/03/25 06:23:52;;;;;;;;;;;21.90;99.90;;;;;;5103516;28;19915;-69
2023/03/25 06:26:20;;;;;;;;;;;21.80;99.90;;;;;;5102175;28;20147;-68
2023/03/25 06:28:47;;;;;;;;;;;21.90;99.90;;;;;;5101302;28;19918;-70
2023/03/25 06:31:19;;;;;;;;;;;21.80;99.90;;;;;;5101839;28;20335;-69
2023/03/25 06:33:46;;;;;;;;;;;21.70;99.90;;;;;;5101396;28;19912;-69
2023/03/25 06:36:20;;;;;;;;;;;21.60;99.90;;;;;;5101477;28;19961;-70
2023/03/25 06:38:48;;;;;;;;;;;21.60;99.90;;;;;;5101288;28;19919;-69
2023/03/25 06:41:16;;;;;;;;;;;21.60;99.90;;;;;;5101317;28;20432;-70
2023/03/25 06:43:43;;;;;;;;;;;21.50;99.90;;;;;;5101618;28;20051;-69
2023/03/25 06:46:09;;;;;;;;;;;21.50;99.90;;;;;;5101304;28;19930;-66
2023/03/25 06:48:36;;;;;;;;;;;21.50;99.90;;;;;;5101139;28;19968;-70
2023/03/25 06:51:03;;;;;;;;;;;21.50;99.90;;;;;;5101399;28;19987;-69
2023/03/25 06:53:29;;;;;;;;;;;21.50;99.90;;;;;;5102802;28;19912;-67
2023/03/25 06:55:56;;;;;;;;;;;21.50;99.90;;;;;;5101778;28;20089;-67
2023/03/25 06:58:23;;;;;;;;;;;21.60;99.90;;;;;;5101971;28;20045;-68
2023/03/25 07:00:55;;;;;;;;;;;21.50;99.90;;;;;;5100914;28;19923;-68
2023/03/25 07:03:22;;;;;;;;;;;21.50;99.90;;;;;;5100144;28;20274;-68
2023/03/25 07:05:49;;;;;;;;;;;21.50;99.90;;;;;;5101183;28;20445;-68
2023/03/25 07:08:15;;;;;;;;;;;21.60;99.90;;;;;;5100508;28;20275;-69
2023/03/25 07:10:42;;;;;;;;;;;21.40;99.90;;;;;;5101260;28;19995;-67
2023/03/25 07:13:09;;;;;;;;;;;21.30;99.90;;;;;;5101083;28;20024;-68
2023/03/25 07:15:36;;;;;;;;;;;21.30;99.90;;;;;;5101681;28;20188;-69
2023/03/25 07:18:03;;;;;;;;;;;21.30;99.90;;;;;;5101701;28;19908;-70
2023/03/25 07:20:30;;;;;;;;;;;21.30;99.90;;;;;;5101440;28;20491;-67
2023/03/25 07:22:56;;;;;;;;;;;21.20;99.90;;;;;;5100590;28;19914;-71
2023/03/25 07:25:23;;;;;;;;;;;21.30;99.90;;;;;;5100375;28;20003;-70
2023/03/25 07:27:50;;;;;;;;;;;21.20;99.90;;;;;;5101266;28;20344;-70
2023/03/25 07:30:16;;;;;;;;;;;21.10;99.90;;;;;;5099996;28;20321;-71
2023/03/25 07:32:44;;;;;;;;;;;21.10;99.90;;;;;;5100624;28;19914;-69
2023/03/25 07:35:11;;;;;;;;;;;21.10;99.90;;;;;;5100778;28;19951;-69
2023/03/25 07:37:38;;;;;;;;;;;21.10;99.90;;;;;;5101379;28;19908;-69
2023/03/25 07:40:05;;;;;;;;;;;21.20;99.90;;;;;;5101477;28;19919;-68
2023/03/25 07:42:31;;;;;;;;;;;21.20;99.90;;;;;;5100792;28;20537;-68
2023/03/25 07:44:58;;;;;;;;;;;21.20;99.90;;;;;;5100475;28;20169;-69
2023/03/25 07:47:25;;;;;;;;;;;21.10;99.90;;;;;;5100553;28;19914;-71
2023/03/25 07:49:51;;;;;;;;;;;21.00;99.90;;;;;;5100410;28;20312;-69
2023/03/25 07:52:18;;;;;;;;;;;21.00;99.90;;;;;;5100101;28;19914;-69
2023/03/25 07:54:44;;;;;;;;;;;21.00;99.90;;;;;;5100355;28;19908;-68
2023/03/25 07:57:12;;;;;;;;;;;21.00;99.90;;;;;;5101006;28;19994;-71
2023/03/25 07:59:38;;;;;;;;;;;20.80;99.90;;;;;;5101693;28;19904;-71
2023/03/25 08:02:05;;;;;;;;;;;20.80;99.90;;;;;;5100833;28;20520;-69
2023/03/25 08:04:32;;;;;;;;;;;20.90;99.90;;;;;;5100077;28;19912;-70
2023/03/25 08:06:59;;;;;;;;;;;21.00;99.90;;;;;;5100035;28;19934;-70
2023/03/25 08:09:26;;;;;;;;;;;20.90;99.90;;;;;;5099887;28;19918;-69
2023/03/25 08:11:52;;;;;;;;;;;20.90;99.90;;;;;;5099915;28;20572;-69
2023/03/25 08:14:19;;;;;;;;;;;20.90;99.90;;;;;;5099833;28;19908;-72
2023/03/25 08:16:46;;;;;;;;;;;20.80;99.90;;;;;;5100513;28;20109;-72
2023/03/25 08:19:12;;;;;;;;;;;20.80;99.90;;;;;;5101110;28;20369;-70
2023/03/25 08:21:40;;;;;;;;;;;20.80;99.90;;;;;;5100488;28;20356;-70
2023/03/25 08:24:06;;;;;;;;;;;20.80;99.90;;;;;;5099779;28;20085;-71
2023/03/25 08:26:34;;;;;;;;;;;20.80;99.90;;;;;;5081304;28;19936;-70
2023/03/25 08:29:01;;;;;;;;;;;20.80;99.90;;;;;;5099815;28;19912;-71
2023/03/25 08:31:33;;;;;;;;;;;20.80;99.90;;;;;;5099540;28;19908;-70
2023/03/25 08:33:59;;;;;;;;;;;20.80;99.90;;;;;;5099712;28;19907;-70
2023/03/25 08:36:26;;;;;;;;;;;20.80;99.90;;;;;;5099246;28;19962;-69
2023/03/25 08:38:53;;;;;;;;;;;20.80;99.90;;;;;;5099039;28;19926;-69
2023/03/25 08:41:20;;;;;;;;;;;20.80;99.90;;;;;;5099779;28;19923;-72
2023/03/25 08:43:47;;;;;;;;;;;20.80;99.90;;;;;;5100350;28;19911;-71
2023/03/25 08:46:13;;;;;;;;;;;20.80;99.90;;;;;;5081771;28;19914;-70
2023/03/25 08:48:40;;;;;;;;;;;20.90;99.90;;;;;;5098979;28;20109;-70
2023/03/25 08:51:07;;;;;;;;;;;20.80;99.90;;;;;;5099420;28;20411;-71
2023/03/25 08:53:33;;;;;;;;;;;20.80;99.90;;;;;;5099812;28;20356;-72
2023/03/25 08:56:00;;;;;;;;;;;20.80;99.90;;;;;;5099987;28;20002;-70
2023/03/25 08:58:27;;;;;;;;;;;20.80;99.90;;;;;;5080296;28;19960;-71
2023/03/25 09:00:54;;;;;;;;;;;20.80;99.90;;;;;;5099592;28;19915;-72
2023/03/25 09:03:22;;;;;;;;;;;20.80;99.90;;;;;;5100134;28;20004;-70
2023/03/25 09:05:49;;;;;;;;;;;20.80;99.90;;;;;;5100425;28;20537;-70
2023/03/25 09:08:15;;;;;;;;;;;20.80;99.90;;;;;;5099112;28;19966;-70
2023/03/25 09:10:42;;;;;;;;;;;20.70;99.90;;;;;;5099018;28;20131;-71
2023/03/25 09:13:09;;;;;;;;;;;20.60;99.90;;;;;;5099155;28;19955;-70
2023/03/25 09:15:36;;;;;;;;;;;20.70;99.90;;;;;;5098954;28;19903;-72
2023/03/25 09:18:03;;;;;;;;;;;20.70;99.90;;;;;;5099117;28;19908;-70
2023/03/25 09:20:30;;;;;;;;;;;20.70;99.90;;;;;;5098357;28;19990;-70
2023/03/25 09:22:57;;;;;;;;;;;20.70;99.90;;;;;;5099414;28;20321;-70
2023/03/25 09:25:24;;;;;;;;;;;20.70;99.90;;;;;;5099754;28;20356;-72
2023/03/25 09:27:51;;;;;;;;;;;20.80;99.90;;;;;;5099410;28;19912;-70
2023/03/25 09:30:18;;;;;;;;;;;20.70;99.90;;;;;;5099293;28;19915;-69
2023/03/25 09:32:44;;;;;;;;;;;20.70;99.90;;;;;;5081042;28;19908;-71
2023/03/25 09:35:11;;;;;;;;;;;20.70;99.90;;;;;;5099236;28;19908;-70
2023/03/25 09:37:37;;;;;;;;;;;20.70;99.90;;;;;;5098667;28;20359;-69
2023/03/25 09:40:04;;;;;;;;;;;20.70;99.90;;;;;;5098462;28;19958;-70
2023/03/25 09:42:35;;;;;;;;;;;20.70;99.90;;;;;;5099515;28;19916;-69
2023/03/25 09:45:17;;;;;;;;;;;20.70;99.90;;;;;;5099010;28;19908;-70
2023/03/25 09:48:06;;;;;;;;;;;20.60;99.90;;;;;;5099039;28;20280;-70
2023/03/25 09:50:34;;;;;;;;;;;20.70;99.90;;;;;;5051375;28;20086;-72
2023/03/25 09:53:06;;;;;;;;;;;20.70;99.90;;;;;;5099459;28;19908;-69
2023/03/25 09:55:35;;;;;;;;;;;20.60;99.90;;;;;;5084725;28;19908;-69
2023/03/25 09:58:12;;;;;;;;;;;20.60;99.90;;;;;;5103068;28;19965;-70
2023/03/25 10:00:39;;;;;;;;;;;20.60;99.90;;;;;;5102023;28;20326;-69
2023/03/25 10:03:09;;;;;;;;;;;20.60;99.90;;;;;;5102343;28;19908;-71
2023/03/25 10:05:39;;;;;;;;;;;20.60;99.90;;;;;;5102118;28;20010;-72
2023/03/25 10:08:12;;;;;;;;;;;20.50;99.90;;;;;;5102324;28;19908;-72
2023/03/25 10:11:03;;;;;;;;;;;20.60;99.90;;;;;;5101859;28;19908;-71
2023/03/25 10:13:45;;;;;;;;;;;20.60;99.90;;;;;;5103245;28;19907;-71
2023/03/25 10:16:24;;;;;;;;;;;20.60;99.90;;;;;;5101964;28;19912;-71
2023/03/25 10:19:10;;;;;;;;;;;20.60;99.90;;;;;;5084317;28;20082;-70
2023/03/25 10:22:02;;;;;;;;;;;20.60;99.90;;;;;;5102523;28;19922;-70
2023/03/25 10:24:29;;;;;;;;;;;20.60;99.90;;;;;;5063820;28;20362;-69
2023/03/25 10:27:11;;;;;;;;;;;20.60;99.90;;;;;;5101667;28;20417;-71
2023/03/25 10:29:45;;;;;;;;;;;20.60;99.90;;;;;;5084073;28;20352;-72
2023/03/25 10:32:30;;;;;;;;;;;20.60;99.90;;;;;;5083650;28;20376;-72
2023/03/25 10:34:57;;;;;;;;;;;20.50;99.90;;;;;;5101584;28;19908;-71
2023/03/25 10:37:27;;;;;;;;;;;20.50;99.90;;;;;;5101317;28;19915;-71
2023/03/25 10:39:57;;;;;;;;;;;20.60;99.90;;;;;;5083530;28;20117;-71
2023/03/25 10:42:34;;;;;;;;;;;20.50;99.90;;;;;;5101793;28;19961;-70
2023/03/25 10:45:01;;;;;;;;;;;20.60;99.90;;;;;;5102232;28;20128;-70
2023/03/25 10:47:32;;;;;;;;;;;20.50;99.90;;;;;;5100996;28;19914;-69
2023/03/25 10:49:59;;;;;;;;;;;20.60;99.90;;;;;;5101099;28;20162;-70
2023/03/25 10:52:25;;;;;;;;;;;20.50;99.90;;;;;;5101593;28;20608;-71
2023/03/25 10:54:53;;;;;;;;;;;20.50;99.90;;;;;;5101533;28;19908;-71
2023/03/25 10:57:25;;;;;;;;;;;20.60;99.90;;;;;;5102001;28;19954;-69
2023/03/25 10:59:52;;;;;;;;;;;20.50;99.90;;;;;;5101195;28;19920;-69
2023/03/25 11:02:19;;;;;;;;;;;20.60;99.90;;;;;;5100029;28;19919;-70
2023/03/25 11:04:47;;;;;;;;;;;20.60;99.90;;;;;;5101411;28;20313;-70
2023/03/25 11:07:29;;;;;;;;;;;20.60;99.90;;;;;;5101229;28;19908;-72
2023/03/25 11:10:27;;;;;;;;;;;20.60;99.90;;;;;;5101190;28;20010;-70
2023/03/25 11:12:57;;;;;;;;;;;20.60;99.90;;;;;;5066720;28;19960;-70
2023/03/25 11:15:25;;;;;;;;;;;20.60;99.90;;;;;;5101159;28;20390;-69
2023/03/25 11:18:00;;;;;;;;;;;20.60;99.90;;;;;;5101388;28;19908;-69
2023/03/25 11:20:35;;;;;;;;;;;20.70;99.90;;;;;;5100901;28;19920;-69
2023/03/25 11:23:05;;;;;;;;;;;20.70;99.90;;;;;;5099595;28;19907;-69
2023/03/25 11:25:36;;;;;;;;;;;20.60;99.90;;;;;;5100508;28;19912;-69
2023/03/25 11:28:08;;;;;;;;;;;20.50;99.90;;;;;;5099615;28;19996;-69
2023/03/25 11:30:35;;;;;;;;;;;20.50;99.90;;;;;;5100144;28;20149;-71
2023/03/25 11:33:05;;;;;;;;;;;20.50;99.90;;;;;;5100306;28;20360;-70
2023/03/25 11:35:37;;;;;;;;;;;20.50;99.90;;;;;;5100269;28;20534;-70
2023/03/25 11:38:33;;;;;;;;;;;20.50;99.90;;;;;;5097422;28;20022;-68
2023/03/25 11:40:59;;;;;;;;;;;20.50;99.90;;;;;;5099310;28;20014;-70
2023/03/25 11:43:29;;;;;;;;;;;20.60;99.90;;;;;;5099952;28;20394;-68
2023/03/25 11:45:56;;;;;;;;;;;20.60;99.90;;;;;;5100064;28;19911;-68
2023/03/25 11:48:24;;;;;;;;;;;20.60;99.90;;;;;;5100420;28;19958;-69
2023/03/25 11:50:58;;;;;;;;;;;20.50;99.90;;;;;;5100602;28;19908;-69
2023/03/25 11:53:26;;;;;;;;;;;20.50;99.90;;;;;;5097956;28;19914;-70
2023/03/25 11:55:54;;;;;;;;;;;20.50;99.90;;;;;;5100449;28;19907;-70
2023/03/25 11:58:26;;;;;;;;;;;20.50;99.90;;;;;;5100996;28;20233;-68
2023/03/25 12:01:00;;;;;;;;;;;20.40;99.90;;;;;;5100024;28;19915;-70
2023/03/25 12:03:27;;;;;;;;;;;20.30;99.90;;;;;;5097666;28;19915;-69
2023/03/25 12:06:12;;;;;;;;;;;20.40;99.90;;;;;;5100204;28;19919;-69
2023/03/25 12:08:58;;;;;;;;;;;20.50;99.90;;;;;;5098904;28;19908;-69
2023/03/25 12:11:34;;;;;;;;;;;20.60;99.90;;;;;;5097474;28;19914;-68
2023/03/25 12:14:04;;;;;;;;;;;20.60;99.90;;;;;;5099544;28;20363;-70
2023/03/25 12:16:30;;;;;;;;;;;20.60;99.90;;;;;;5099421;28;19994;-70
2023/03/25 12:19:00;;;;;;;;;;;20.60;99.90;;;;;;5099285;28;19914;-72
2023/03/25 12:21:47;;;;;;;;;;;20.60;99.90;;;;;;5100162;28;19923;-71
2023/03/25 12:24:13;;;;;;;;;;;20.60;99.90;;;;;;5057408;28;20752;-71
2023/03/25 12:26:59;;;;;;;;;;;20.60;99.90;;;;;;5099626;28;19908;-70
2023/03/25 12:29:40;;;;;;;;;;;20.60;99.90;;;;;;5100983;28;20423;-70
2023/03/25 12:32:07;;;;;;;;;;;20.60;99.90;;;;;;5099607;28;19964;-71
2023/03/25 12:34:46;;;;;;;;;;;20.60;99.90;;;;;;5099786;28;19914;-69
2023/03/25 12:37:25;;;;;;;;;;;20.60;99.90;;;;;;5099858;28;20701;-70
2023/03/25 12:40:04;;;;;;;;;;;20.60;99.90;;;;;;5100161;28;20012;-69
2023/03/25 12:42:50;;;;;;;;;;;20.60;99.90;;;;;;5099559;28;19912;-71
2023/03/25 12:45:36;;;;;;;;;;;20.60;99.90;;;;;;5099253;28;19908;-70
2023/03/25 12:48:12;;;;;;;;;;;20.70;99.90;;;;;;5099080;28;19923;-70
2023/03/25 12:50:45;;;;;;;;;;;20.70;99.90;;;;;;5100006;28;20403;-68
2023/03/25 12:53:31;;;;;;;;;;;20.60;99.90;;;;;;5099332;28;19914;-68
2023/03/25 12:55:57;;;;;;;;;;;20.60;99.90;;;;;;5100078;28;19908;-70
2023/03/25 12:58:24;;;;;;;;;;;20.70;99.90;;;;;;5100040;28;19931;-68
2023/03/25 13:01:03;;;;;;;;;;;20.60;99.90;;;;;;5098985;28;19927;-68
2023/03/25 13:03:29;;;;;;;;;;;20.70;99.90;;;;;;5100686;28;19958;-71
2023/03/25 13:06:00;;;;;;;;;;;20.70;99.90;;;;;;5100209;28;19908;-69
2023/03/25 13:08:30;;;;;;;;;;;20.70;99.90;;;;;;5100095;28;20368;-69
2023/03/25 13:11:02;;;;;;;;;;;20.70;99.90;;;;;;5099931;28;19907;-68
2023/03/25 13:13:31;;;;;;;;;;;20.70;99.90;;;;;;5100200;28;19904;-69
2023/03/25 13:15:58;;;;;;;;;;;20.70;99.90;;;;;;5100366;28;19991;-69
2023/03/25 13:18:31;;;;;;;;;;;20.70;99.90;;;;;;5099251;28;20384;-70
2023/03/25 13:21:09;;;;;;;;;;;20.70;99.90;;;;;;5099531;28;20265;-70
2023/03/25 13:23:36;;;;;;;;;;;20.80;99.90;;;;;;5099556;28;19934;-71
2023/03/25 13:26:16;;;;;;;;;;;20.70;99.90;;;;;;5099783;28;19908;-70
2023/03/25 13:28:47;;;;;;;;;;;20.70;99.90;;;;;;5100052;28;19908;-69
2023/03/25 13:31:16;;;;;;;;;;;20.70;99.90;;;;;;5103023;28;20002;-70
2023/03/25 13:34:08;;;;;;;;;;;20.80;99.90;;;;;;5103040;28;19911;-69
2023/03/25 13:36:37;;;;;;;;;;;20.80;99.90;;;;;;5064888;28;19908;-70
2023/03/25 13:39:25;;;;;;;;;;;20.80;99.90;;;;;;5103677;28;19924;-71
2023/03/25 13:41:56;;;;;;;;;;;20.80;99.90;;;;;;5102857;28;19923;-70
2023/03/25 13:44:27;;;;;;;;;;;20.80;99.90;;;;;;5102776;28;19908;-69
2023/03/25 13:46:57;;;;;;;;;;;20.80;99.90;;;;;;5102745;28;19939;-68
2023/03/25 13:49:31;;;;;;;;;;;20.80;99.90;;;;;;5102675;28;19908;-68
2023/03/25 13:51:58;;;;;;;;;;;20.70;99.90;;;;;;5102506;28;20336;-68
2023/03/25 13:54:32;;;;;;;;;;;20.80;99.90;;;;;;5102596;28;19994;-68
2023/03/25 13:56:59;;;;;;;;;;;20.80;99.90;;;;;;5102169;28;19908;-68
2023/03/25 13:59:44;;;;;;;;;;;20.80;99.90;;;;;;5102412;28;19911;-70
2023/03/25 14:02:20;;;;;;;;;;;20.90;99.90;;;;;;5103280;28;20296;-69
2023/03/25 14:05:05;;;;;;;;;;;20.90;99.90;;;;;;5102365;28;19911;-68
2023/03/25 14:07:35;;;;;;;;;;;20.90;99.90;;;;;;5102227;28;19966;-68
2023/03/25 14:10:07;;;;;;;;;;;20.90;99.90;;;;;;5101935;28;20779;-68
2023/03/25 14:12:40;;;;;;;;;;;20.90;99.90;;;;;;5102683;28;19914;-68
2023/03/25 14:15:23;;;;;;;;;;;20.90;99.90;;;;;;5103514;28;20543;-67
2023/03/25 14:17:51;;;;;;;;;;;20.90;99.90;;;;;;5102490;28;19908;-68
2023/03/25 14:20:24;;;;;;;;;;;20.90;99.90;;;;;;5101732;28;20013;-70
2023/03/25 14:22:55;;;;;;;;;;;20.80;99.90;;;;;;5102080;28;19995;-68
2023/03/25 14:25:27;;;;;;;;;;;20.80;99.90;;;;;;5101983;28;19907;-68
2023/03/25 14:27:54;;;;;;;;;;;20.80;99.90;;;;;;5102522;28;19907;-69
2023/03/25 14:30:23;;;;;;;;;;;20.90;99.90;;;;;;5101895;28;19947;-69
2023/03/25 14:32:50;;;;;;;;;;;20.80;99.90;;;;;;5102182;28;19915;-69
2023/03/25 14:35:32;;;;;;;;;;;20.80;99.90;;;;;;5102452;28;19908;-68
2023/03/25 14:38:08;;;;;;;;;;;20.80;99.90;;;;;;5101550;28;19927;-68